CheckWX is a tool to help pilots better visualize weather data.  It is not intended as a substitute for an official pre-flight weather briefing.

15:39:40 UTC

PAEL METAR
Elfin Cove Seaplane Base
Elfin Cove, Alaska, USA
Current

53 mins ago

PAEL 221447Z 00000KT 7SM -RA OVC028 11/10 A2988 RMK SEA 0 SWELL 2 SW NOSPECI
Observed
Aug-22 @ 14:47 UTC
Visibility
7 SM
Flight Rules
MVFR
Conditions
Light Rain
Cloud Levels
  • Overcast at 2,800' AGL
Temperature
11°C / 52°F
Dewpoint
10°C / 50°F
Humidity
94%
Altimeter
29.88" Hg
Pressure
1011.82 hPa
Previous

13 hours ago

PAEL 220250Z 30008KT 20SM BKN017 BKN050 15/11 A2982 RMK SPB E23015KT SEA 1 SWELL 1 SW NOSPECI LAST
Observed
Aug-22 @ 02:50 UTC
Wind
  • 300° at 8 KTS
Visibility
20 SM
Flight Rules
MVFR
Cloud Levels
  • Broken at 1,700' AGL
  • Broken at 5,000' AGL
Temperature
15°C / 59°F
Dewpoint
11°C / 52°F
Humidity
77%
Altimeter
29.82" Hg
Pressure
1009.82 hPa
Previous

15 hours ago

PAEL 220056Z 30008KT 20SM OVC012 15/12 A2978 RMK SPB E23012KT SEA 1 SWELL 0 SW NOSPECI
Observed
Aug-22 @ 00:56 UTC
Wind
  • 300° at 8 KTS
Visibility
20 SM
Flight Rules
MVFR
Cloud Levels
  • Overcast at 1,200' AGL
Temperature
15°C / 59°F
Dewpoint
12°C / 54°F
Humidity
82%
Altimeter
29.78" Hg
Pressure
1008.42 hPa